Terminal Aerodrome Forecast
Issued by NWS Charleston, WV

Current Version | Previous Version | Text Only | Print | Product List | Glossary Off
Versions: 1 2 3 4 5 6 7 8 9 10 11 12 13 14 15 16 17 18 19 20 21 22 23 24 25

000
FTUS41 KRLX 042330
TAFHTS
TAF
KHTS 042330Z 0500/0524 29005KT 5SM SHRA VCTS OVC035CB
     FM050200 31006KT 6SM SHRA BR BKN025
     FM050500 31005KT P6SM BKN015
     FM051100 29006KT 6SM SHRA BR BKN008
     FM051600 30005KT 3SM SHRA BR BKN012=

USA.gov is the U.S. government's official web portal to all federal, state and local government web resources and services.